createdAt,value
2022-09-16T00:01:14.618Z,9.87
2022-09-16T00:11:20.267Z,13.63
2022-09-16T00:21:23.741Z,15.98
2022-09-16T00:31:28.168Z,12.35
2022-09-16T00:41:33.437Z,14.33
2022-09-16T00:51:39.837Z,9.32
2022-09-16T01:01:44.916Z,12.55
2022-09-16T01:11:49.451Z,15.30
2022-09-16T01:21:58.243Z,9.13
2022-09-16T01:32:07.511Z,7.22
2022-09-16T01:42:21.765Z,11.25
2022-09-16T01:52:36.149Z,9.38
2022-09-16T02:02:43.023Z,13.13
2022-09-16T02:12:51.919Z,13.27
2022-09-16T02:23:00.403Z,9.23
2022-09-16T02:33:10.212Z,9.73
2022-09-16T02:43:13.874Z,11.68
2022-09-16T02:53:28.928Z,10.10
2022-09-16T03:03:31.909Z,11.18
2022-09-16T03:13:45.899Z,11.32
2022-09-16T03:23:58.393Z,13.32
2022-09-16T03:34:08.107Z,9.88
2022-09-16T03:44:11.049Z,8.60
2022-09-16T03:54:15.429Z,9.98
2022-09-16T04:04:18.474Z,9.40
2022-09-16T04:14:22.830Z,14.15
2022-09-16T04:24:26.573Z,9.53
2022-09-16T04:34:32.311Z,10.20
2022-09-16T04:44:35.264Z,8.48
2022-09-16T04:54:39.617Z,7.05
2022-09-16T05:04:42.601Z,7.70
2022-09-16T05:14:46.915Z,9.30
2022-09-16T05:24:49.883Z,11.37
2022-09-16T05:34:54.912Z,8.75
2022-09-16T05:44:57.828Z,6.95
2022-09-16T05:55:02.196Z,10.52
2022-09-16T06:05:05.733Z,6.63
2022-09-16T06:15:12.596Z,9.50
2022-09-16T06:25:15.874Z,6.80
2022-09-16T06:35:20.284Z,6.78
2022-09-16T06:45:23.805Z,4.03
2022-09-16T06:55:28.155Z,4.95
2022-09-16T07:05:31.222Z,5.30
2022-09-16T07:15:50.942Z,5.65
2022-09-16T07:26:03.227Z,6.60
2022-09-16T07:36:09.586Z,5.65
2022-09-16T07:46:14.801Z,5.65
2022-09-16T07:56:20.891Z,7.93
2022-09-16T08:06:26.329Z,9.52
2022-09-16T08:16:30.959Z,6.43
2022-09-16T08:26:34.047Z,7.07
2022-09-16T08:36:38.601Z,6.68
2022-09-16T08:46:50.059Z,9.00
2022-09-16T08:56:56.276Z,3.83
2022-09-16T09:07:08.185Z,6.90
2022-09-16T09:17:22.223Z,9.70
2022-09-16T09:27:29.280Z,9.57
2022-09-16T09:37:50.818Z,4.93
2022-09-16T09:47:59.004Z,4.75
2022-09-16T09:58:24.891Z,4.47
2022-09-16T10:08:31.676Z,8.07
2022-09-16T10:18:36.293Z,4.63
2022-09-16T10:28:39.714Z,4.73
2022-09-16T10:38:45.643Z,2.38
2022-09-16T10:48:51.999Z,7.45
2022-09-16T10:59:07.455Z,8.50
2022-09-16T11:09:18.853Z,7.68
2022-09-16T11:19:32.894Z,10.00
2022-09-16T11:29:52.020Z,7.47
2022-09-16T11:40:13.737Z,7.82
2022-09-16T11:50:34.752Z,7.63
2022-09-16T12:00:40.569Z,4.28
2022-09-16T12:10:49.686Z,6.82
2022-09-16T12:21:01.266Z,2.28
2022-09-16T12:31:12.002Z,2.70
2022-09-16T12:41:35.178Z,2.92
2022-09-16T12:52:03.212Z,4.82
2022-09-16T13:02:13.640Z,6.10
2022-09-16T13:22:51.998Z,8.35
2022-09-16T13:33:14.936Z,4.35
2022-09-16T13:43:30.951Z,8.38
2022-09-16T13:53:37.903Z,7.68
2022-09-16T14:03:58.718Z,4.55
2022-09-16T14:14:06.833Z,7.72
2022-09-16T14:24:20.350Z,8.00
2022-09-16T14:34:29.270Z,9.10
2022-09-16T14:44:38.468Z,6.28
2022-09-16T14:54:45.633Z,10.48
2022-09-16T15:04:58.237Z,8.63
2022-09-16T15:15:05.923Z,7.05
2022-09-16T15:25:26.491Z,6.05
2022-09-16T15:35:50.359Z,6.97
2022-09-16T15:46:03.294Z,6.70
2022-09-16T15:56:10.130Z,6.20
2022-09-16T16:06:14.731Z,8.85
2022-09-16T16:16:19.216Z,11.15
2022-09-16T16:26:24.919Z,6.80
2022-09-16T16:36:30.951Z,5.45
2022-09-16T16:46:37.780Z,7.05
2022-09-16T16:56:47.718Z,8.30
2022-09-16T17:07:14.527Z,8.65
2022-09-16T17:17:17.219Z,11.93
2022-09-16T17:27:24.718Z,10.00
2022-09-16T17:37:27.859Z,8.50
2022-09-16T17:47:32.676Z,9.95
2022-09-16T17:57:35.718Z,9.95
2022-09-16T18:07:40.145Z,15.45
2022-09-16T18:17:43.268Z,8.13
2022-09-16T18:27:47.676Z,6.93
2022-09-16T18:37:50.836Z,15.27
2022-09-16T18:47:56.483Z,8.43
2022-09-16T18:57:59.501Z,17.35
2022-09-16T19:08:04.021Z,13.68
2022-09-16T19:18:07.107Z,6.73
2022-09-16T19:28:11.668Z,15.85
2022-09-16T19:38:15.197Z,16.57
2022-09-16T19:48:19.618Z,11.25
2022-09-16T19:58:22.601Z,10.63
2022-09-16T20:08:27.046Z,14.30
2022-09-16T20:18:30.953Z,16.87
2022-09-16T20:28:37.097Z,16.30
2022-09-16T20:38:41.362Z,18.63
2022-09-16T20:48:46.227Z,15.10
2022-09-16T20:58:49.622Z,16.92
2022-09-16T21:08:55.929Z,11.95
2022-09-16T21:19:01.767Z,14.98
2022-09-16T21:29:09.903Z,17.02
2022-09-16T21:39:15.257Z,13.38
2022-09-16T21:49:24.442Z,23.95
2022-09-16T21:59:27.547Z,12.23
2022-09-16T22:09:31.953Z,16.58
2022-09-16T22:19:35.295Z,13.47
2022-09-16T22:29:39.734Z,28.30
2022-09-16T22:39:42.732Z,17.60
2022-09-16T22:49:47.032Z,16.67
2022-09-16T22:59:50.011Z,12.87
2022-09-16T23:09:54.947Z,12.25
2022-09-16T23:19:57.889Z,20.33
2022-09-16T23:30:02.337Z,19.10
2022-09-16T23:40:06.036Z,15.70
2022-09-16T23:50:11.739Z,19.20
